Time;durP1;ratioP1;P1;durP2;ratioP2;P2;SDS_P1;SDS_P2;PMS_P1;PMS_P2;Temp;Humidity;BMP_temperature;BMP_pressure;BME280_temperature;BME280_humidity;BME280_pressure;Samples;Min_cycle;Max_cycle;Signal;HPM_P1;HPM_P2
2023/08/06 00:00:40;;;;;;;2.80;2.60;;;;;;;16.04;100.00;99283.59;181289;1262;59549;-59
2023/08/06 00:05:04;;;;;;;3.00;2.50;;;;;;;16.11;100.00;99284.46;181285;1262;43629;-60
2023/08/06 00:09:14;;;;;;;3.30;3.00;;;;;;;16.09;100.00;99269.17;181296;1263;43089;-59
2023/08/06 00:13:17;;;;;;;2.50;2.20;;;;;;;16.04;100.00;99259.70;181241;1262;43201;-59
2023/08/06 00:17:20;;;;;;;3.80;3.50;;;;;;;16.05;100.00;99255.30;181230;1263;42988;-59
2023/08/06 00:21:23;;;;;;;2.10;2.00;;;;;;;16.02;100.00;99237.89;181233;1263;58069;-60
2023/08/06 00:25:53;;;;;;;2.50;2.30;;;;;;;15.97;100.00;99233.33;181306;1262;43077;-59
2023/08/06 00:30:06;;;;;;;3.90;2.50;;;;;;;15.95;100.00;99232.96;181292;1262;43050;-59
2023/08/06 00:34:09;;;;;;;4.00;2.90;;;;;;;15.95;100.00;99222.05;181383;1262;43770;-60
2023/08/06 00:38:12;;;;;;;5.00;2.90;;;;;;;15.94;100.00;99211.39;181358;1262;43755;-59
2023/08/06 00:42:20;;;;;;;3.30;2.40;;;;;;;15.95;100.00;99192.08;181335;1262;57585;-59
2023/08/06 00:46:23;;;;;;;4.10;2.80;;;;;;;15.99;100.00;99183.14;181254;1263;43144;-62
2023/08/06 00:50:29;;;;;;;2.30;2.10;;;;;;;16.00;100.00;99173.53;181249;1263;43709;-63
2023/08/06 00:54:33;;;;;;;5.50;2.50;;;;;;;15.99;100.00;99167.92;181333;1262;43098;-62
2023/08/06 01:03:50;;;;;;;3.50;3.20;;;;;;;15.93;100.00;99137.52;181362;1262;58543;-62
2023/08/06 01:08:30;;;;;;;2.80;2.60;;;;;;;15.88;100.00;99120.79;181261;1264;43027;-61
2023/08/06 01:12:49;;;;;;;3.50;3.20;;;;;;;15.87;100.00;99118.07;181274;1264;43635;-61
2023/08/06 01:16:54;;;;;;;2.80;2.50;;;;;;;15.86;100.00;99117.44;181260;1263;43070;-60
2023/08/06 01:20:57;;;;;;;4.80;2.30;;;;;;;15.84;100.00;99114.27;181333;1262;43114;-61
2023/08/06 01:25:02;;;;;;;2.00;1.90;;;;;;;15.83;100.00;99110.89;181353;1262;58038;-59
2023/08/06 01:29:28;;;;;;;2.50;2.30;;;;;;;15.81;100.00;99105.70;181288;1264;43775;-60
2023/08/06 01:33:33;;;;;;;4.20;2.50;;;;;;;15.80;100.00;99107.40;181304;1263;43698;-61
2023/08/06 01:37:36;;;;;;;2.00;1.90;;;;;;;15.81;100.00;99117.75;181314;1263;43084;-60
2023/08/06 01:41:39;;;;;;;2.30;2.10;;;;;;;15.77;100.00;99113.71;181329;1264;42982;-60
2023/08/06 01:45:42;;;;;;;1.90;1.60;;;;;;;15.75;100.00;99102.76;181326;1263;58170;-61
2023/08/06 01:49:59;;;;;;;5.20;2.60;;;;;;;15.75;100.00;99101.27;181370;1263;43106;-60
2023/08/06 01:54:01;;;;;;;;;;;;;;;15.72;100.00;99095.55;181353;1264;43612;-61
2023/08/06 01:58:04;;;;;;;3.90;2.00;;;;;;;15.72;100.00;99098.09;181235;1263;43397;-61
2023/08/06 02:02:07;;;;;;;1.50;1.40;;;;;;;15.71;100.00;99095.33;181236;1262;43139;-60
2023/08/06 02:06:10;;;;;;;2.80;1.80;;;;;;;15.72;100.00;99084.62;181325;1264;58578;-60
2023/08/06 02:10:14;;;;;;;2.40;1.60;;;;;;;15.71;100.00;99092.77;181333;1263;43106;-61
2023/08/06 02:14:24;;;;;;;1.70;1.40;;;;;;;15.71;100.00;99078.04;181352;1263;43088;-60
2023/08/06 02:18:27;;;;;;;1.40;1.00;;;;;;;15.72;100.00;99073.27;181303;1262;43918;-60
2023/08/06 02:22:30;;;;;;;0.80;0.50;;;;;;;15.73;100.00;99060.17;181337;1263;43690;-61
2023/08/06 02:26:34;;;;;;;2.90;1.80;;;;;;;15.74;100.00;99061.05;181307;1264;58637;-60
2023/08/06 02:30:51;;;;;;;1.20;1.10;;;;;;;15.71;100.00;99060.52;181363;1262;43845;-62
2023/08/06 02:34:54;;;;;;;2.80;1.20;;;;;;;15.67;100.00;99044.75;181329;1264;42951;-61
2023/08/06 02:39:01;;;;;;;1.90;0.70;;;;;;;15.66;100.00;99028.55;181278;1264;43076;-60
2023/08/06 02:43:04;;;;;;;1.50;1.20;;;;;;;15.62;100.00;99013.98;181206;1264;43014;-61
2023/08/06 02:47:07;;;;;;;1.60;0.70;;;;;;;15.60;100.00;99009.06;181235;1264;58029;-62
2023/08/06 02:52:03;;;;;;;1.40;0.90;;;;;;;15.59;100.00;98990.24;181308;1264;43040;-61
2023/08/06 02:56:06;;;;;;;1.90;1.10;;;;;;;15.59;100.00;98969.10;181354;1263;43627;-61
2023/08/06 03:00:11;;;;;;;1.40;0.80;;;;;;;15.54;100.00;98967.68;181275;1262;43679;-61
2023/08/06 03:10:02;;;;;;;1.10;1.00;;;;;;;15.53;100.00;98959.96;181227;1263;59792;-62
2023/08/06 03:14:05;;;;;;;1.00;0.80;;;;;;;15.53;100.00;98954.86;181186;1263;43142;-62
2023/08/06 03:18:08;;;;;;;0.80;0.50;;;;;;;15.51;100.00;98952.45;181281;1262;43189;-61
2023/08/06 03:22:28;;;;;;;0.50;0.30;;;;;;;15.52;100.00;98945.27;181338;1263;43664;-61
2023/08/06 03:26:31;;;;;;;4.50;0.30;;;;;;;15.50;100.00;98939.68;181244;1263;43147;-60
2023/08/06 03:30:41;;;;;;;0.60;0.40;;;;;;;15.52;100.00;98951.02;181282;1262;58063;-62
2023/08/06 03:34:45;;;;;;;1.80;0.60;;;;;;;15.51;100.00;98949.51;181318;1262;43374;-60
2023/08/06 03:38:50;;;;;;;1.20;0.40;;;;;;;15.50;100.00;98928.79;181280;1262;43726;-60
2023/08/06 03:42:53;;;;;;;0.30;0.30;;;;;;;15.50;100.00;98903.77;181289;1262;43056;-61
2023/08/06 03:47:00;;;;;;;0.90;0.30;;;;;;;15.49;100.00;98898.66;181342;1264;43866;-60
2023/08/06 03:51:03;;;;;;;0.50;0.40;;;;;;;15.46;100.00;98901.11;181413;1262;57905;-61
2023/08/06 03:55:06;;;;;;;0.20;0.20;;;;;;;15.46;100.00;98904.13;181291;1262;43039;-61
2023/08/06 03:59:11;;;;;;;2.00;0.20;;;;;;;15.46;100.00;98909.36;181293;1262;43625;-64
2023/08/06 04:03:14;;;;;;;0.10;0.10;;;;;;;15.48;100.00;98924.21;181306;1262;43149;-60
2023/08/06 04:07:19;;;;;;;0.00;0.00;;;;;;;15.51;100.00;98925.65;181339;1263;43052;-62
2023/08/06 04:11:22;;;;;;;0.20;0.20;;;;;;;15.55;100.00;98921.45;181323;1263;58169;-61
2023/08/06 04:15:33;;;;;;;0.10;0.10;;;;;;;15.53;100.00;98907.86;181332;1262;43080;-61
2023/08/06 04:19:36;;;;;;;0.70;0.20;;;;;;;15.49;100.00;98896.97;181311;1262;43082;-64
2023/08/06 04:23:39;;;;;;;0.30;0.10;;;;;;;15.51;100.00;98900.01;181370;1262;43046;-61
2023/08/06 04:27:42;;;;;;;1.00;0.40;;;;;;;15.44;100.00;98896.94;181293;1262;43429;-61
2023/08/06 04:31:45;;;;;;;0.30;0.10;;;;;;;15.45;100.00;98896.48;181370;1262;57107;-62
2023/08/06 04:35:54;;;;;;;0.10;0.10;;;;;;;15.47;100.00;98896.20;181371;1262;43071;-61
2023/08/06 04:39:57;;;;;;;0.40;0.10;;;;;;;15.44;100.00;98907.07;181223;1263;43652;-61
2023/08/06 04:44:00;;;;;;;0.20;0.20;;;;;;;15.49;100.00;98912.31;181380;1262;43051;-61
2023/08/06 04:54:24;;;;;;;0.80;0.10;;;;;;;15.56;100.00;98920.38;176975;1282;567232;-61
2023/08/06 04:58:29;;;;;;;0.10;0.10;;;;;;;15.47;100.00;98925.07;180009;1265;58434;-61
2023/08/06 05:02:44;;;;;;;0.20;0.20;;;;;;;15.44;100.00;98911.03;179915;1266;43858;-60
2023/08/06 05:06:52;;;;;;;0.60;0.20;;;;;;;15.41;100.00;98876.38;179464;1260;1170593;-62
2023/08/06 05:10:56;;;;;;;1.00;0.30;;;;;;;15.38;100.00;98848.16;180808;1256;43675;-60
2023/08/06 05:14:59;;;;;;;0.40;0.10;;;;;;;15.43;100.00;98861.59;180772;1256;43804;-62
2023/08/06 05:19:03;;;;;;;0.70;0.70;;;;;;;15.51;100.00;98875.42;180816;1255;60500;-60
2023/08/06 05:23:16;;;;;;;0.50;0.20;;;;;;;15.58;100.00;98882.50;180692;1256;45906;-60
2023/08/06 05:27:19;;;;;;;0.40;0.20;;;;;;;15.57;100.00;98887.44;181361;1252;43786;-60
2023/08/06 05:31:23;;;;;;;0.60;0.60;;;;;;;15.54;100.00;98880.66;181194;1253;44671;-59
2023/08/06 05:35:52;;;;;;;0.60;0.40;;;;;;;15.52;100.00;98860.31;181155;1253;45917;-60
2023/08/06 05:39:55;;;;;;;0.20;0.20;;;;;;;15.49;100.00;98847.47;181056;1252;58530;-59
2023/08/06 05:43:58;;;;;;;1.60;0.30;;;;;;;15.55;100.00;98833.95;180953;1253;43562;-60
2023/08/06 05:48:05;;;;;;;0.10;0.10;;;;;;;15.53;100.00;98825.80;181000;1253;46029;-60
2023/08/06 05:52:08;;;;;;;0.30;0.10;;;;;;;15.52;100.00;98815.36;181180;1253;47762;-59
2023/08/06 05:56:12;;;;;;;0.50;0.20;;;;;;;15.50;100.00;98812.55;181210;1253;43649;-60
2023/08/06 06:00:18;;;;;;;3.60;0.40;;;;;;;15.52;100.00;98811.61;181348;1252;58739;-60
2023/08/06 06:04:23;;;;;;;0.30;0.20;;;;;;;15.48;100.00;98815.30;181298;1253;44934;-62
2023/08/06 06:08:28;;;;;;;0.50;0.10;;;;;;;15.50;100.00;98822.35;181382;1253;45864;-61
2023/08/06 06:12:53;;;;;;;0.30;0.30;;;;;;;15.49;100.00;98837.94;181514;1253;44687;-61
2023/08/06 06:16:56;;;;;;;2.20;0.40;;;;;;;15.49;100.00;98839.67;180679;1257;45977;-86
2023/08/06 06:21:00;;;;;;;0.30;0.30;;;;;;;15.52;100.00;98842.61;180750;1257;60455;-85
2023/08/06 06:25:04;;;;;;;0.60;0.40;;;;;;;15.54;100.00;98838.19;181171;1256;45225;-87
2023/08/06 06:29:07;;;;;;;2.20;1.30;;;;;;;15.52;100.00;98836.23;181029;1256;44601;-84
2023/08/06 06:33:11;;;;;;;3.10;1.00;;;;;;;15.48;100.00;98836.36;181097;1256;45540;-87
2023/08/06 06:37:14;;;;;;;1.20;0.50;;;;;;;15.51;100.00;98833.27;181245;1256;45901;-89
2023/08/06 06:41:18;;;;;;;0.60;0.50;;;;;;;15.50;100.00;98840.09;181273;1256;59536;-90
2023/08/06 06:45:21;;;;;;;0.70;0.40;;;;;;;15.50;100.00;98835.05;179901;1257;44799;-90
2023/08/06 06:49:25;;;;;;;0.70;0.70;;;;;;;15.52;100.00;98838.76;180214;1257;45933;-89
2023/08/06 06:53:28;;;;;;;0.40;0.30;;;;;;;15.48;100.00;98836.33;180099;1257;46335;-90
2023/08/06 06:57:34;;;;;;;1.00;0.90;;;;;;;15.50;100.00;98833.77;180100;1256;46005;-89
2023/08/06 07:01:40;;;;;;;0.80;0.70;;;;;;;15.54;100.00;98822.61;180418;1256;58406;-89
2023/08/06 07:05:50;;;;;;;0.50;0.50;;;;;;;15.60;100.00;98818.69;180105;1256;45918;-88
2023/08/06 07:09:55;;;;;;;0.80;0.70;;;;;;;15.63;100.00;98828.44;179589;1258;46059;-88
2023/08/06 07:13:59;;;;;;;0.20;0.20;;;;;;;15.64;100.00;98835.84;179238;1258;47903;-90
2023/08/06 07:18:10;;;;;;;0.70;0.70;;;;;;;15.62;100.00;98836.02;179976;1258;46110;-89
2023/08/06 07:22:18;;;;;;;0.70;0.70;;;;;;;15.68;100.00;98827.28;179626;1259;59713;-88
2023/08/06 07:26:21;;;;;;;1.00;0.30;;;;;;;15.67;100.00;98809.21;179065;1258;46182;-88
2023/08/06 07:30:26;;;;;;;0.40;0.40;;;;;;;15.76;100.00;98788.70;179529;1258;45122;-88
2023/08/06 07:34:30;;;;;;;2.70;1.00;;;;;;;15.86;100.00;98779.27;179722;1259;46020;-89
2023/08/06 07:38:35;;;;;;;1.30;0.80;;;;;;;15.92;100.00;98777.88;179672;1259;46091;-86
2023/08/06 07:42:39;;;;;;;0.30;0.30;;;;;;;15.91;100.00;98773.52;179561;1256;58027;-88
2023/08/06 07:46:43;;;;;;;0.40;0.40;;;;;;;15.93;100.00;98769.32;180099;1257;44859;-88
2023/08/06 07:50:53;;;;;;;0.80;0.50;;;;;;;15.94;100.00;98760.30;180138;1257;44589;-85
2023/08/06 07:55:04;;;;;;;0.70;0.70;;;;;;;15.96;100.00;98756.34;179869;1261;45935;-89
2023/08/06 07:59:15;;;;;;;0.90;0.70;;;;;;;15.98;100.00;98752.05;179855;1258;45999;-88
2023/08/06 08:03:21;;;;;;;0.70;0.60;;;;;;;16.01;100.00;98755.78;179797;1257;60515;-89
2023/08/06 08:07:27;;;;;;;1.10;0.90;;;;;;;16.02;100.00;98764.41;179579;1258;46040;-90
2023/08/06 08:11:34;;;;;;;1.10;0.40;;;;;;;16.09;100.00;98777.94;179793;1258;47106;-86
2023/08/06 08:15:38;;;;;;;1.00;0.80;;;;;;;16.07;100.00;98780.87;180298;1258;48721;-89
2023/08/06 08:19:42;;;;;;;1.60;1.00;;;;;;;16.04;100.00;98772.39;179433;1261;45255;-89
2023/08/06 08:23:46;;;;;;;1.00;0.90;;;;;;;15.99;100.00;98764.73;179666;1256;58262;-88
2023/08/06 08:27:50;;;;;;;1.60;0.60;;;;;;;15.96;100.00;98751.97;179543;1258;46181;-89
2023/08/06 08:31:54;;;;;;;1.30;0.90;;;;;;;15.91;100.00;98746.66;179367;1259;46085;-88
2023/08/06 08:35:59;;;;;;;0.60;0.60;;;;;;;15.89;100.00;98731.86;179232;1259;45147;-87
2023/08/06 08:40:03;;;;;;;0.60;0.40;;;;;;;15.84;100.00;98713.50;178825;1258;45968;-90
2023/08/06 08:44:10;;;;;;;1.60;1.30;;;;;;;15.91;100.00;98692.69;179317;1257;58867;-89
2023/08/06 08:48:14;;;;;;;1.60;0.60;;;;;;;15.88;100.00;98687.15;179783;1257;44835;-89
2023/08/06 08:52:19;;;;;;;1.10;0.80;;;;;;;15.85;100.00;98694.80;179055;1258;46022;-87
2023/08/06 08:56:24;;;;;;;2.40;0.80;;;;;;;15.85;100.00;98705.04;179059;1259;44740;-88
2023/08/06 09:00:29;;;;;;;0.60;0.60;;;;;;;15.83;100.00;98702.77;178800;1259;46073;-89
2023/08/06 09:04:32;;;;;;;1.50;0.70;;;;;;;15.85;100.00;98704.32;179945;1256;57457;-90
2023/08/06 09:08:44;;;;;;;0.60;0.60;;;;;;;15.80;100.00;98703.92;178391;1257;46074;-90
2023/08/06 09:12:50;;;;;;;0.90;0.60;;;;;;;15.77;100.00;98692.24;178234;1260;46087;-90
2023/08/06 09:16:55;;;;;;;0.50;0.50;;;;;;;15.81;100.00;98684.13;178320;1258;46116;-89
2023/08/06 09:20:58;;;;;;;0.70;0.60;;;;;;;15.78;100.00;98671.38;178985;1257;46046;-88
2023/08/06 09:25:04;;;;;;;0.70;0.50;;;;;;;15.79;100.00;98669.69;179630;1257;58226;-89
2023/08/06 09:29:11;;;;;;;4.30;0.70;;;;;;;15.73;100.00;98661.23;178221;1258;46015;-89
2023/08/06 09:33:19;;;;;;;1.30;0.60;;;;;;;15.71;100.00;98656.90;180628;1254;89861;-59
2023/08/06 09:37:25;;;;;;;0.50;0.50;;;;;;;15.77;100.00;98657.31;180462;1257;44731;-61
2023/08/06 09:41:48;;;;;;;0.30;0.30;;;;;;;15.79;100.00;98642.84;180434;1257;43750;-61
2023/08/06 09:45:52;;;;;;;0.30;0.20;;;;;;;15.82;100.00;98645.00;180531;1257;58244;-61
2023/08/06 09:49:58;;;;;;;0.60;0.50;;;;;;;15.81;100.00;98644.83;180730;1256;43590;-61
2023/08/06 09:54:04;;;;;;;0.50;0.30;;;;;;;15.79;100.00;98642.38;180751;1256;43565;-60
2023/08/06 09:58:40;;;;;;;1.10;0.60;;;;;;;15.85;100.00;98637.50;180604;1256;44801;-60
2023/08/06 10:02:46;;;;;;;0.50;0.50;;;;;;;15.86;100.00;98644.20;180656;1256;45404;-61
2023/08/06 10:06:53;;;;;;;0.80;0.80;;;;;;;15.88;100.00;98639.55;180656;1256;59061;-60
2023/08/06 10:11:10;;;;;;;0.90;0.60;;;;;;;15.82;100.00;98644.24;180522;1256;43615;-60
2023/08/06 10:15:19;;;;;;;1.30;0.70;;;;;;;15.92;100.00;98645.91;180734;1257;48578;-63
2023/08/06 10:19:25;;;;;;;0.70;0.70;;;;;;;15.96;100.00;98646.73;180735;1257;46054;-61
2023/08/06 10:23:38;;;;;;;1.30;0.70;;;;;;;15.98;100.00;98652.79;180627;1257;44130;-61
2023/08/06 10:28:09;;;;;;;1.10;0.90;;;;;;;16.04;100.00;98649.52;180316;1257;88950;-86
2023/08/06 10:32:20;;;;;;;1.90;0.80;;;;;;;16.01;100.00;98646.66;178737;1254;45941;-85
2023/08/06 10:36:26;;;;;;;0.80;0.30;;;;;;;16.05;100.00;98655.83;178590;1254;45999;-86
2023/08/06 10:40:30;;;;;;;2.40;0.70;;;;;;;16.05;100.00;98653.67;178683;1256;46005;-85
2023/08/06 10:44:40;;;;;;;0.90;0.80;;;;;;;16.13;100.00;98647.55;178365;1257;45971;-85
2023/08/06 10:48:45;;;;;;;2.50;0.60;;;;;;;16.16;100.00;98647.16;178168;1255;57728;-85
2023/08/06 10:52:49;;;;;;;1.30;0.70;;;;;;;16.20;100.00;98651.61;178974;1259;46073;-85
2023/08/06 10:56:52;;;;;;;1.70;0.50;;;;;;;16.18;100.00;98643.04;178214;1255;45937;-85
2023/08/06 11:00:56;;;;;;;1.20;0.40;;;;;;;16.17;100.00;98645.34;178005;1254;46044;-85
2023/08/06 11:05:07;;;;;;;0.80;0.60;;;;;;;16.23;100.00;98645.27;178970;1255;45973;-84
2023/08/06 11:09:11;;;;;;;0.60;0.30;;;;;;;16.14;100.00;98646.11;178195;1254;58069;-84
2023/08/06 11:13:18;;;;;;;2.90;0.50;;;;;;;16.21;100.00;98645.84;178801;1257;44276;-82
2023/08/06 11:17:31;;;;;;;0.50;0.40;;;;;;;16.23;100.00;98649.45;178502;1254;45896;-87
2023/08/06 11:21:35;;;;;;;1.40;0.40;;;;;;;16.26;100.00;98652.20;178094;1259;46025;-87
2023/08/06 11:25:44;;;;;;;1.50;0.70;;;;;;;16.30;100.00;98653.63;178836;1254;46015;-84
2023/08/06 11:29:55;;;;;;;0.80;0.70;;;;;;;16.32;100.00;98649.66;178197;1256;58231;-84
2023/08/06 11:34:05;;;;;;;0.80;0.60;;;;;;;16.36;100.00;98649.84;178244;1256;46054;-85
2023/08/06 11:38:09;;;;;;;2.10;1.30;;;;;;;16.35;100.00;98644.40;178878;1255;44039;-81
2023/08/06 11:42:12;;;;;;;1.40;0.80;;;;;;;16.36;100.00;98644.07;178351;1257;45977;-84
2023/08/06 11:46:17;;;;;;;0.60;0.60;;;;;;;16.43;100.00;98635.85;177782;1257;46117;-85
2023/08/06 11:50:25;;;;;;;1.10;0.80;;;;;;;16.47;100.00;98640.53;177977;1257;58534;-84
2023/08/06 11:54:36;;;;;;;1.10;1.00;;;;;;;16.55;100.00;98641.94;177801;1254;44651;-84
2023/08/06 11:58:41;;;;;;;0.70;0.70;;;;;;;16.73;100.00;98636.16;178355;1259;45971;-85
2023/08/06 12:02:46;;;;;;;1.20;0.70;;;;;;;16.87;100.00;98626.12;177640;1254;46406;-86
2023/08/06 12:06:50;;;;;;;5.50;1.30;;;;;;;16.91;100.00;98614.19;178357;1254;46080;-85
2023/08/06 12:10:53;;;;;;;1.10;1.00;;;;;;;16.91;100.00;98612.86;177653;1254;58951;-86
2023/08/06 12:14:57;;;;;;;1.90;0.70;;;;;;;16.96;100.00;98611.38;178385;1254;45942;-85
2023/08/06 12:19:00;;;;;;;1.00;0.90;;;;;;;17.00;100.00;98613.86;178286;1255;44445;-84
2023/08/06 12:23:03;;;;;;;0.70;0.50;;;;;;;17.11;100.00;98616.12;178871;1256;46184;-86
2023/08/06 12:27:06;;;;;;;5.90;0.90;;;;;;;17.20;100.00;98615.08;178393;1256;45883;-83
2023/08/06 12:31:09;;;;;;;1.50;0.80;;;;;;;17.20;100.00;98623.30;178839;1254;58274;-84
2023/08/06 12:35:14;;;;;;;1.10;0.80;;;;;;;17.20;100.00;98625.33;178122;1257;45970;-82
2023/08/06 12:39:17;;;;;;;1.90;1.00;;;;;;;17.11;100.00;98619.89;178412;1255;45891;-84
2023/08/06 12:43:20;;;;;;;0.70;0.70;;;;;;;17.24;100.00;98618.61;178532;1256;46066;-86
2023/08/06 12:47:23;;;;;;;3.30;0.90;;;;;;;17.27;100.00;98619.48;178172;1255;46060;-86
2023/08/06 12:51:26;;;;;;;1.30;1.20;;;;;;;17.32;100.00;98622.89;178502;1255;58193;-85
2023/08/06 12:55:29;;;;;;;0.40;0.40;;;;;;;17.20;100.00;98618.99;178609;1254;46092;-85
2023/08/06 12:59:39;;;;;;;0.40;0.40;;;;;;;17.19;100.00;98626.77;178040;1256;46128;-85
2023/08/06 13:08:40;;;;;;;1.30;0.60;;;;;;;17.12;100.00;98644.60;148516;1261;44947;-60
2023/08/06 13:12:44;;;;;;;0.90;0.60;;;;;;;17.02;100.00;98653.52;180567;1257;60849;-61
2023/08/06 13:16:51;;;;;;;1.10;0.80;;;;;;;16.98;100.00;98668.64;180692;1257;43877;-61
2023/08/06 13:20:56;;;;;;;1.10;0.70;;;;;;;16.88;100.00;98669.38;180565;1257;44456;-61
2023/08/06 13:24:59;;;;;;;1.70;0.70;;;;;;;16.79;100.00;98664.25;180744;1257;44950;-61
2023/08/06 13:29:07;;;;;;;1.00;0.90;;;;;;;16.58;100.00;98672.46;180772;1257;43700;-61
2023/08/06 13:33:16;;;;;;;1.00;0.50;;;;;;;16.47;100.00;98677.21;180692;1257;58014;-61
2023/08/06 13:37:20;;;;;;;1.20;1.10;;;;;;;16.38;100.00;98681.45;180839;1257;45974;-62
2023/08/06 13:41:27;;;;;;;2.20;1.40;;;;;;;16.28;100.00;98694.73;180652;1257;44799;-62
2023/08/06 13:45:31;;;;;;;1.00;0.90;;;;;;;16.18;100.00;98706.45;180666;1257;44085;-61
2023/08/06 13:49:37;;;;;;;6.20;1.90;;;;;;;16.20;100.00;98708.08;180663;1257;43534;-62
2023/08/06 13:54:00;;;;;;;2.20;1.00;;;;;;;16.29;100.00;98707.64;180591;1257;58916;-62
2023/08/06 13:58:12;;;;;;;1.40;0.80;;;;;;;16.38;100.00;98708.02;180532;1257;43718;-62
2023/08/06 14:02:17;;;;;;;1.60;1.10;;;;;;;16.50;100.00;98716.01;180676;1256;43566;-62
2023/08/06 14:06:21;;;;;;;1.70;1.60;;;;;;;16.63;100.00;98709.84;180613;1256;46027;-62
2023/08/06 14:10:27;;;;;;;;;;;;;;;16.84;100.00;98702.52;180643;1258;43514;-62
2023/08/06 14:14:51;;;;;;;2.50;2.00;;;;;;;16.93;100.00;98694.49;180594;1259;58756;-62
2023/08/06 14:18:59;;;;;;;3.30;1.50;;;;;;;16.96;100.00;98688.74;180212;1259;45983;-61
2023/08/06 14:23:12;;;;;;;2.80;2.20;;;;;;;16.93;100.00;98692.19;180395;1258;44937;-61
2023/08/06 14:27:25;;;;;;;2.50;2.10;;;;;;;16.96;100.00;98706.73;180538;1259;44329;-62
2023/08/06 14:31:29;;;;;;;1.60;1.40;;;;;;;16.97;100.00;98707.85;180403;1259;44030;-62
2023/08/06 14:35:38;;;;;;;3.50;1.50;;;;;;;16.89;100.00;98707.46;180336;1259;58252;-62
2023/08/06 14:40:19;;;;;;;5.00;1.80;;;;;;;16.84;100.00;98719.14;180371;1258;45941;-62
2023/08/06 14:44:33;;;;;;;10.20;2.10;;;;;;;16.82;100.00;98714.33;180535;1258;43656;-61
2023/08/06 14:48:43;;;;;;;3.10;1.60;;;;;;;16.79;100.00;98721.84;180372;1259;43991;-64
2023/08/06 14:53:10;;;;;;;2.80;2.60;;;;;;;16.73;100.00;98729.27;180260;1259;45990;-63
2023/08/06 14:57:18;;;;;;;3.30;1.70;;;;;;;16.66;100.00;98736.56;180221;1259;59918;-62
2023/08/06 15:01:49;;;;;;;2.20;1.50;;;;;;;16.74;100.00;98746.11;180038;1262;43621;-62
2023/08/06 15:05:56;;;;;;;1.20;1.10;;;;;;;16.71;100.00;98753.17;180048;1262;44540;-63
2023/08/06 15:10:06;;;;;;;2.10;1.60;;;;;;;16.67;100.00;98744.58;180081;1265;44942;-63
2023/08/06 15:14:30;;;;;;;1.60;1.20;;;;;;;16.67;100.00;98752.05;180024;1261;45015;-62
2023/08/06 15:18:34;;;;;;;3.60;1.50;;;;;;;16.63;100.00;98761.84;180167;1259;59761;-63
2023/08/06 15:22:38;;;;;;;2.70;1.30;;;;;;;16.63;100.00;98769.13;180514;1257;46035;-63
2023/08/06 15:26:42;;;;;;;2.40;2.10;;;;;;;16.65;100.00;98769.80;180507;1257;44721;-63
2023/08/06 15:31:05;;;;;;;1.80;1.60;;;;;;;16.69;100.00;98778.38;180471;1257;44904;-63
2023/08/06 15:35:13;;;;;;;;;;;;;;;16.63;100.00;98775.42;180566;1257;43760;-63
2023/08/06 15:39:21;;;;;;;2.10;1.60;;;;;;;16.54;100.00;98772.87;180421;1257;58468;-62
2023/08/06 15:43:25;;;;;;;2.60;1.30;;;;;;;16.55;100.00;98780.59;180464;1257;44961;-62
2023/08/06 15:47:32;;;;;;;2.60;1.40;;;;;;;16.59;100.00;98781.02;180459;1257;45865;-62
2023/08/06 15:51:36;;;;;;;1.60;1.20;;;;;;;16.65;100.00;98778.81;180558;1257;44137;-63
2023/08/06 15:55:51;;;;;;;1.60;1.10;;;;;;;16.64;100.00;98774.92;180531;1257;45301;-64
2023/08/06 15:59:55;;;;;;;11.70;1.40;;;;;;;16.62;100.00;98780.45;180404;1257;59401;-63
2023/08/06 16:04:12;;;;;;;4.50;1.90;;;;;;;16.59;100.00;98777.05;180289;1258;43932;-63
2023/08/06 16:08:19;;;;;;;2.60;1.90;;;;;;;16.56;100.00;98780.02;180292;1260;43662;-63
2023/08/06 16:12:24;;;;;;;1.30;1.10;;;;;;;16.55;100.00;98783.70;180583;1257;44790;-63
2023/08/06 16:16:30;;;;;;;3.10;1.40;;;;;;;16.55;100.00;98777.17;180644;1256;43774;-63
2023/08/06 16:20:35;;;;;;;1.90;0.80;;;;;;;16.51;100.00;98782.90;180543;1257;57998;-63
2023/08/06 16:24:40;;;;;;;1.90;1.70;;;;;;;16.50;100.00;98773.48;180680;1257;43593;-61
2023/08/06 16:28:43;;;;;;;3.40;1.30;;;;;;;16.51;100.00;98781.87;180624;1257;45845;-61
2023/08/06 16:32:49;;;;;;;3.90;1.30;;;;;;;16.45;100.00;98776.73;180593;1257;43653;-61
2023/08/06 16:36:55;;;;;;;3.70;1.90;;;;;;;16.35;100.00;98779.86;180646;1258;43824;-62
2023/08/06 16:41:00;;;;;;;1.80;1.30;;;;;;;16.16;100.00;98776.15;180617;1257;58434;-62
2023/08/06 16:45:07;;;;;;;2.50;2.30;;;;;;;16.25;100.00;98772.20;180482;1257;45165;-61
2023/08/06 16:49:10;;;;;;;2.00;1.50;;;;;;;16.19;100.00;98773.45;180558;1256;44720;-62
2023/08/06 16:53:14;;;;;;;4.90;1.80;;;;;;;16.18;100.00;98781.48;180570;1257;44832;-62
2023/08/06 16:57:42;;;;;;;2.50;1.50;;;;;;;16.19;100.00;98786.94;180676;1260;43551;-62
2023/08/06 17:01:46;;;;;;;1.70;1.50;;;;;;;16.29;100.00;98797.80;180597;1257;59313;-62
2023/08/06 17:05:49;;;;;;;5.80;2.40;;;;;;;16.38;100.00;98805.02;172935;1257;10164181;-62
2023/08/06 17:10:08;;;;;;;2.90;2.60;;;;;;;16.37;100.00;98815.88;180611;1257;58246;-62
2023/08/06 17:14:14;;;;;;;4.50;2.50;;;;;;;16.38;100.00;98824.51;180527;1257;43788;-62
2023/08/06 17:18:23;;;;;;;2.30;1.80;;;;;;;16.41;100.00;98829.80;180653;1257;43583;-62
2023/08/06 17:22:28;;;;;;;2.70;1.80;;;;;;;16.48;100.00;98832.31;180616;1257;44198;-62
2023/08/06 17:26:40;;;;;;;1.70;1.60;;;;;;;16.55;100.00;98831.77;180614;1257;45077;-62
2023/08/06 17:30:51;;;;;;;4.60;1.90;;;;;;;16.68;100.00;98836.81;180699;1257;59870;-62
2023/08/06 17:34:57;;;;;;;2.10;1.70;;;;;;;16.77;100.00;98842.00;180743;1257;45086;-63
2023/08/06 17:39:10;;;;;;;3.50;2.20;;;;;;;16.82;100.00;98842.96;180565;1257;43987;-61
2023/08/06 17:43:14;;;;;;;2.20;1.80;;;;;;;16.83;100.00;98850.12;180438;1257;44943;-62
2023/08/06 17:47:20;;;;;;;2.00;1.80;;;;;;;16.79;100.00;98849.98;180570;1256;44504;-63
2023/08/06 17:51:44;;;;;;;2.70;1.80;;;;;;;16.73;100.00;98849.42;180599;1260;58681;-63
2023/08/06 17:55:53;;;;;;;2.10;1.40;;;;;;;16.71;100.00;98845.86;180584;1257;43672;-63
2023/08/06 18:00:02;;;;;;;1.60;1.40;;;;;;;16.65;100.00;98843.40;180598;1257;46070;-63
2023/08/06 18:04:13;;;;;;;2.80;1.70;;;;;;;16.63;100.00;98838.16;180731;1257;45414;-63
2023/08/06 18:08:16;;;;;;;2.70;1.80;;;;;;;16.44;100.00;98829.61;180726;1257;45015;-63
2023/08/06 18:12:20;;;;;;;1.90;1.60;;;;;;;16.40;100.00;98827.44;180678;1257;59106;-63
2023/08/06 18:16:25;;;;;;;1.80;1.40;;;;;;;16.47;100.00;98832.27;180625;1258;44626;-63
2023/08/06 18:20:29;;;;;;;3.40;2.20;;;;;;;16.56;100.00;98837.42;180564;1256;46014;-63
2023/08/06 18:24:33;;;;;;;4.40;2.60;;;;;;;16.63;100.00;98845.13;180667;1257;43618;-63
2023/08/06 18:28:40;;;;;;;6.50;3.80;;;;;;;16.64;100.00;98846.04;180684;1257;45956;-64
2023/08/06 18:32:46;;;;;;;5.60;2.30;;;;;;;16.72;100.00;98855.24;180744;1256;59506;-64
2023/08/06 18:36:50;;;;;;;4.40;3.00;;;;;;;16.74;100.00;98861.36;180582;1257;45926;-64
2023/08/06 18:41:00;;;;;;;;;;;;;;;16.75;100.00;98859.26;180711;1257;43600;-64
2023/08/06 18:45:16;;;;;;;4.30;3.90;;;;;;;16.76;100.00;98862.56;180568;1256;45715;-64
2023/08/06 18:49:21;;;;;;;5.20;3.00;;;;;;;16.77;100.00;98864.31;180587;1257;43534;-64
2023/08/06 18:53:24;;;;;;;6.80;4.40;;;;;;;16.79;100.00;98871.70;180570;1257;58394;-63
2023/08/06 18:57:29;;;;;;;3.60;2.90;;;;;;;16.84;100.00;98878.73;180618;1257;44175;-64
2023/08/06 19:01:34;;;;;;;3.70;3.20;;;;;;;16.82;100.00;98875.97;180634;1256;44617;-62
2023/08/06 19:05:41;;;;;;;4.70;2.60;;;;;;;16.83;100.00;98879.23;180556;1257;44667;-62
2023/08/06 19:09:50;;;;;;;4.10;2.90;;;;;;;16.83;100.00;98880.77;180684;1258;44596;-63
2023/08/06 19:13:54;;;;;;;3.50;2.90;;;;;;;16.83;100.00;98878.82;180674;1257;57985;-63
2023/08/06 19:18:02;;;;;;;;;;;;;;;16.82;100.00;98879.98;180584;1261;45909;-63
2023/08/06 19:22:07;;;;;;;5.50;3.00;;;;;;;16.81;100.00;98879.14;180695;1256;44572;-63